createdAt,value
2023-05-18T00:01:54.123Z,102762.09
2023-05-18T00:04:24.297Z,102758.03
2023-05-18T00:06:56.958Z,102755.63
2023-05-18T00:09:25.742Z,102768.75
2023-05-18T00:11:58.695Z,102768.38
2023-05-18T00:14:27.470Z,102767.81
2023-05-18T00:16:55.868Z,102774.19
2023-05-18T00:19:24.487Z,102771.44
2023-05-18T00:21:56.066Z,102774.06
2023-05-18T00:24:24.369Z,102775.03
2023-05-18T00:26:52.846Z,102772.63
2023-05-18T00:29:23.181Z,102774.56
2023-05-18T00:31:51.252Z,102789.75
2023-05-18T00:34:21.355Z,102788.66
2023-05-18T00:36:49.498Z,102783.38
2023-05-18T00:39:17.863Z,102786.25
2023-05-18T00:41:46.000Z,102781.19
2023-05-18T00:44:14.038Z,102780.50
2023-05-18T00:46:44.498Z,102784.09
2023-05-18T00:49:13.089Z,102778.91
2023-05-18T00:51:42.751Z,102782.78
2023-05-18T00:54:10.857Z,102770.13
2023-05-18T00:56:41.836Z,102774.59
2023-05-18T00:59:11.900Z,102782.28
2023-05-18T01:01:44.026Z,102790.97
2023-05-18T01:04:19.160Z,102785.56
2023-05-18T01:06:47.420Z,102782.06
2023-05-18T01:09:16.431Z,102789.75
2023-05-18T01:11:57.011Z,102793.13
2023-05-18T01:14:30.723Z,102794.69
2023-05-18T01:17:10.656Z,102793.34
2023-05-18T01:20:10.908Z,102797.31
2023-05-18T01:22:47.941Z,102793.97
2023-05-18T01:25:23.813Z,102790.44
2023-05-18T01:27:56.244Z,102792.50
2023-05-18T01:30:24.944Z,102798.19
2023-05-18T01:32:52.939Z,102781.78
2023-05-18T01:35:21.776Z,102781.50
2023-05-18T01:37:49.834Z,102783.31
2023-05-18T01:40:18.197Z,102783.44
2023-05-18T01:42:53.793Z,102793.69
2023-05-18T01:45:29.188Z,102795.38
2023-05-18T01:48:03.367Z,102804.19
2023-05-18T01:50:37.948Z,102804.19
2023-05-18T01:53:13.045Z,102804.28
2023-05-18T01:55:42.174Z,102808.53
2023-05-18T01:58:13.313Z,102810.69
2023-05-18T02:00:42.814Z,102812.63
2023-05-18T02:03:13.978Z,102809.84
2023-05-18T02:05:42.067Z,102812.38
2023-05-18T02:08:10.077Z,102814.91
2023-05-18T02:10:38.043Z,102807.19
2023-05-18T02:13:06.000Z,102809.59
2023-05-18T02:15:33.953Z,102807.94
2023-05-18T02:18:09.349Z,102808.66
2023-05-18T02:20:38.365Z,102802.38
2023-05-18T02:23:06.772Z,102812.25
2023-05-18T02:25:35.210Z,102812.00
2023-05-18T02:28:03.067Z,102813.44
2023-05-18T02:30:33.412Z,102812.81
2023-05-18T02:33:01.683Z,102810.31
2023-05-18T02:35:31.756Z,102812.22
2023-05-18T02:38:00.445Z,102808.63
2023-05-18T02:40:28.269Z,102812.59
2023-05-18T02:42:56.177Z,102815.47
2023-05-18T02:45:23.972Z,102814.78
2023-05-18T02:47:51.771Z,102821.03
2023-05-18T02:50:20.072Z,102818.63
2023-05-18T02:52:50.248Z,102817.63
2023-05-18T02:55:18.902Z,102825.34
2023-05-18T02:57:48.158Z,102823.44
2023-05-18T03:00:16.898Z,102811.84
2023-05-18T03:02:48.511Z,102820.41
2023-05-18T03:05:18.756Z,102823.66
2023-05-18T03:07:51.007Z,102820.03
2023-05-18T03:10:20.627Z,102818.94
2023-05-18T03:12:49.393Z,102818.69
2023-05-18T03:15:17.202Z,102812.03
2023-05-18T03:17:45.136Z,102818.06
2023-05-18T03:20:15.719Z,102816.25
2023-05-18T03:22:43.746Z,102815.16
2023-05-18T03:25:11.472Z,102815.03
2023-05-18T03:27:40.833Z,102812.84
2023-05-18T03:30:09.860Z,102816.59
2023-05-18T03:32:38.130Z,102819.63
2023-05-18T03:35:06.625Z,102825.16
2023-05-18T03:37:34.470Z,102826.00
2023-05-18T03:40:11.425Z,102830.31
2023-05-18T03:42:41.911Z,102833.22
2023-05-18T03:45:10.894Z,102833.47
2023-05-18T03:47:39.651Z,102825.88
2023-05-18T03:50:08.966Z,102826.47
2023-05-18T03:52:37.220Z,102827.06
2023-05-18T03:55:06.213Z,102837.44
2023-05-18T03:57:34.455Z,102836.06
2023-05-18T04:00:08.885Z,102837.38
2023-05-18T04:02:37.562Z,102838.06
2023-05-18T04:05:06.429Z,102843.06
2023-05-18T04:07:34.520Z,102846.78
2023-05-18T04:10:02.592Z,102850.72
2023-05-18T04:12:31.170Z,102859.75
2023-05-18T04:14:59.086Z,102851.84
2023-05-18T04:17:28.426Z,102849.53
2023-05-18T04:19:56.440Z,102853.84
2023-05-18T04:22:24.283Z,102861.91
2023-05-18T04:24:55.384Z,102857.69
2023-05-18T04:27:23.184Z,102860.78
2023-05-18T04:29:51.972Z,102863.66
2023-05-18T04:32:22.320Z,102867.81
2023-05-18T04:34:51.662Z,102866.81
2023-05-18T04:37:19.760Z,102869.84
2023-05-18T04:39:48.089Z,102874.03
2023-05-18T04:42:18.568Z,102884.75
2023-05-18T04:44:48.983Z,102875.91
2023-05-18T04:47:16.897Z,102878.00
2023-05-18T04:49:44.706Z,102884.88
2023-05-18T04:52:15.021Z,102882.44
2023-05-18T04:54:43.348Z,102879.38
2023-05-18T04:57:12.052Z,102881.75
2023-05-18T04:59:41.459Z,102884.16
2023-05-18T05:02:09.454Z,102889.94
2023-05-18T05:04:37.392Z,102898.31
2023-05-18T05:07:05.975Z,102891.75
2023-05-18T05:09:35.383Z,102898.47
2023-05-18T05:12:04.162Z,102888.75
2023-05-18T05:14:32.576Z,102889.19
2023-05-18T05:17:02.833Z,102889.47
2023-05-18T05:19:33.456Z,102887.25
2023-05-18T05:22:02.094Z,102887.28
2023-05-18T05:24:31.275Z,102897.69
2023-05-18T05:27:07.997Z,102886.34
2023-05-18T05:29:36.654Z,102897.00
2023-05-18T05:32:05.512Z,102898.53
2023-05-18T05:34:33.565Z,102899.63
2023-05-18T05:37:04.045Z,102900.53
2023-05-18T05:39:33.434Z,102902.81
2023-05-18T05:42:07.377Z,102897.41
2023-05-18T05:44:35.525Z,102904.81
2023-05-18T05:47:04.861Z,102898.72
2023-05-18T05:49:33.397Z,102911.66
2023-05-18T05:52:03.380Z,102911.97
2023-05-18T05:54:31.866Z,102904.22
2023-05-18T05:57:00.332Z,102904.28
2023-05-18T05:59:29.986Z,102910.13
2023-05-18T06:01:58.664Z,102916.69
2023-05-18T06:04:26.787Z,102911.44
2023-05-18T06:06:55.459Z,102907.19
2023-05-18T06:09:23.692Z,102905.03
2023-05-18T06:11:52.912Z,102909.56
2023-05-18T06:14:22.486Z,102909.34
2023-05-18T06:16:53.086Z,102919.09
2023-05-18T06:19:21.878Z,102908.47
2023-05-18T06:21:49.914Z,102901.66
2023-05-18T06:24:19.188Z,102915.94
2023-05-18T06:26:47.129Z,102917.50
2023-05-18T06:29:17.414Z,102915.75
2023-05-18T06:31:46.056Z,102915.75
2023-05-18T06:34:17.894Z,102914.66
2023-05-18T06:36:46.582Z,102913.31
2023-05-18T06:41:56.045Z,102917.19
2023-05-18T06:44:23.692Z,102919.63
2023-05-18T06:46:51.336Z,102920.59
2023-05-18T06:49:20.291Z,102926.38
2023-05-18T06:51:48.262Z,102920.84
2023-05-18T06:54:16.359Z,102919.91
2023-05-18T06:56:43.994Z,102921.41
2023-05-18T06:59:11.709Z,102923.13
2023-05-18T07:01:39.405Z,102922.41
2023-05-18T07:04:07.598Z,102917.50
2023-05-18T07:06:37.239Z,102913.94
2023-05-18T07:09:05.610Z,102915.84
2023-05-18T07:11:33.194Z,102916.47
2023-05-18T07:14:00.973Z,102917.22
2023-05-18T07:16:28.754Z,102915.97
2023-05-18T07:18:57.962Z,102925.91
2023-05-18T07:21:26.217Z,102925.44
2023-05-18T07:23:55.785Z,102926.25
2023-05-18T07:26:23.684Z,102922.53
2023-05-18T07:28:52.078Z,102928.75
2023-05-18T07:31:21.655Z,102931.16
2023-05-18T07:33:50.150Z,102920.75
2023-05-18T07:36:17.984Z,102924.94
2023-05-18T07:38:45.668Z,102930.16
2023-05-18T07:41:15.176Z,102935.50
2023-05-18T07:43:42.793Z,102929.69
2023-05-18T07:46:11.125Z,102934.91
2023-05-18T07:48:40.812Z,102934.97
2023-05-18T07:51:10.166Z,102935.81
2023-05-18T07:53:38.203Z,102936.06
2023-05-18T07:56:06.990Z,102930.31
2023-05-18T07:58:36.093Z,102930.72
2023-05-18T08:01:03.949Z,102937.53
2023-05-18T08:03:31.943Z,102927.78
2023-05-18T08:06:00.367Z,102932.00
2023-05-18T08:08:28.814Z,102929.72
2023-05-18T08:10:56.526Z,102929.25
2023-05-18T08:13:24.101Z,102923.50
2023-05-18T08:16:02.980Z,102934.75
2023-05-18T08:18:38.530Z,102936.25
2023-05-18T08:21:08.169Z,102936.25
2023-05-18T08:23:36.060Z,102933.84
2023-05-18T08:26:04.565Z,102932.41
2023-05-18T08:28:32.821Z,102935.72
2023-05-18T08:31:01.861Z,102934.59
2023-05-18T08:33:29.554Z,102934.75
2023-05-18T08:35:57.216Z,102931.59
2023-05-18T08:38:24.823Z,102922.13
2023-05-18T08:40:59.829Z,102929.50
2023-05-18T08:43:33.326Z,102937.22
2023-05-18T08:46:07.714Z,102927.88
2023-05-18T08:48:37.824Z,102931.09
2023-05-18T08:51:07.572Z,102925.97
2023-05-18T08:53:38.942Z,102930.63
2023-05-18T08:56:07.261Z,102931.28
2023-05-18T08:58:37.195Z,102930.25
2023-05-18T09:01:06.873Z,102920.41
2023-05-18T09:03:34.987Z,102928.59
2023-05-18T09:06:04.551Z,102934.09
2023-05-18T09:08:33.138Z,102929.72
2023-05-18T09:11:03.530Z,102927.03
2023-05-18T09:13:31.680Z,102921.59
2023-05-18T09:15:59.381Z,102924.69
2023-05-18T09:18:28.646Z,102929.88
2023-05-18T09:20:56.708Z,102925.38
2023-05-18T09:23:24.773Z,102918.19
2023-05-18T09:25:53.715Z,102921.94
2023-05-18T09:28:28.994Z,102914.94
2023-05-18T09:30:56.728Z,102920.88
2023-05-18T09:33:25.974Z,102912.31
2023-05-18T09:35:55.117Z,102905.06
2023-05-18T09:38:23.535Z,102898.75
2023-05-18T09:40:51.804Z,102904.66
2023-05-18T09:43:19.850Z,102886.75
2023-05-18T09:45:49.582Z,102898.97
2023-05-18T09:48:18.010Z,102903.72
2023-05-18T09:50:46.295Z,102906.56
2023-05-18T09:53:15.944Z,102906.25
2023-05-18T09:55:47.641Z,102905.41
2023-05-18T09:58:15.550Z,102908.75
2023-05-18T10:00:44.647Z,102909.84
2023-05-18T10:03:20.196Z,102902.72
2023-05-18T10:05:47.956Z,102904.16
2023-05-18T10:08:17.738Z,102901.66
2023-05-18T10:10:47.428Z,102904.00
2023-05-18T10:13:18.219Z,102905.22
2023-05-18T10:15:50.954Z,102904.63
2023-05-18T10:18:23.416Z,102910.78
2023-05-18T10:20:52.820Z,102909.84
2023-05-18T10:23:23.084Z,102897.16
2023-05-18T10:25:52.292Z,102900.25
2023-05-18T10:28:25.924Z,102903.34
2023-05-18T10:30:55.639Z,102894.81
2023-05-18T10:33:29.621Z,102902.41
2023-05-18T10:35:58.456Z,102906.41
2023-05-18T10:38:28.715Z,102898.09
2023-05-18T10:41:00.212Z,102903.25
2023-05-18T10:43:29.396Z,102895.31
2023-05-18T10:45:58.766Z,102898.97
2023-05-18T10:48:27.524Z,102901.91
2023-05-18T10:50:56.485Z,102898.91
2023-05-18T10:53:26.937Z,102901.63
2023-05-18T10:55:57.003Z,102894.72
2023-05-18T10:58:27.587Z,102893.72
2023-05-18T11:00:58.404Z,102888.84
2023-05-18T11:03:27.208Z,102894.31
2023-05-18T11:06:06.633Z,102893.94
2023-05-18T11:08:34.926Z,102893.22
2023-05-18T11:11:07.342Z,102894.84
2023-05-18T11:13:36.094Z,102883.31
2023-05-18T11:16:08.445Z,102884.97
2023-05-18T11:18:39.112Z,102884.25
2023-05-18T11:21:22.700Z,102888.66
2023-05-18T11:24:25.492Z,102881.38
2023-05-18T11:26:56.369Z,102878.25
2023-05-18T11:29:25.888Z,102886.94
2023-05-18T11:31:54.928Z,102886.38
2023-05-18T11:34:42.116Z,102890.44
2023-05-18T11:37:10.445Z,102883.69
2023-05-18T11:39:47.982Z,102884.31
2023-05-18T11:42:24.836Z,102885.25
2023-05-18T11:44:56.223Z,102880.47
2023-05-18T11:47:30.790Z,102882.72
2023-05-18T11:50:00.313Z,102884.38
2023-05-18T11:52:28.441Z,102878.72
2023-05-18T11:54:58.224Z,102875.31
2023-05-18T11:57:39.929Z,102875.97
2023-05-18T12:00:10.214Z,102879.66
2023-05-18T12:02:38.623Z,102869.94
2023-05-18T12:05:09.427Z,102875.53
2023-05-18T12:07:38.843Z,102873.97
2023-05-18T12:10:08.981Z,102870.91
2023-05-18T12:12:39.569Z,102860.19
2023-05-18T12:15:09.494Z,102859.13
2023-05-18T12:17:41.043Z,102862.19
2023-05-18T12:20:09.791Z,102868.94
2023-05-18T12:22:37.514Z,102864.66
2023-05-18T12:25:05.732Z,102858.97
2023-05-18T12:27:40.990Z,102862.16
2023-05-18T12:30:11.899Z,102865.31
2023-05-18T12:32:39.670Z,102866.31
2023-05-18T12:35:08.967Z,102858.66
2023-05-18T12:37:45.199Z,102871.78
2023-05-18T12:40:15.890Z,102858.09
2023-05-18T12:42:54.502Z,102863.25
2023-05-18T12:45:24.391Z,102854.38
2023-05-18T12:47:54.487Z,102862.50
2023-05-18T12:50:23.499Z,102855.44
2023-05-18T12:52:51.301Z,102860.84
2023-05-18T12:55:21.712Z,102855.72
2023-05-18T12:58:02.144Z,102857.09
2023-05-18T13:00:33.608Z,102854.59
2023-05-18T13:03:07.173Z,102849.00
2023-05-18T13:05:34.904Z,102844.53
2023-05-18T13:08:02.822Z,102835.59
2023-05-18T13:10:31.998Z,102839.75
2023-05-18T13:13:03.758Z,102846.78
2023-05-18T13:15:35.642Z,102839.56
2023-05-18T13:18:04.626Z,102834.88
2023-05-18T13:20:37.958Z,102841.78
2023-05-18T13:23:07.923Z,102829.91
2023-05-18T13:25:35.605Z,102832.66
2023-05-18T13:28:05.368Z,102825.34
2023-05-18T13:30:33.438Z,102829.31
2023-05-18T13:33:01.943Z,102827.97
2023-05-18T13:35:30.179Z,102819.81
2023-05-18T13:37:59.072Z,102831.09
2023-05-18T13:40:26.983Z,102825.69
2023-05-18T13:42:54.679Z,102824.84
2023-05-18T13:45:24.140Z,102824.69
2023-05-18T13:47:53.489Z,102820.53
2023-05-18T13:50:22.922Z,102817.78
2023-05-18T13:52:50.994Z,102822.41
2023-05-18T13:55:18.821Z,102819.41
2023-05-18T13:57:47.248Z,102819.19
2023-05-18T14:00:16.968Z,102820.28
2023-05-18T14:02:46.197Z,102819.38
2023-05-18T14:05:15.041Z,102806.28
2023-05-18T14:07:44.213Z,102806.09
2023-05-18T14:10:13.923Z,102802.91
2023-05-18T14:12:42.676Z,102792.88
2023-05-18T14:15:13.574Z,102804.56
2023-05-18T14:17:41.421Z,102806.72
2023-05-18T14:20:11.609Z,102811.78
2023-05-18T14:22:39.223Z,102812.16
2023-05-18T14:25:07.473Z,102802.72
2023-05-18T14:27:35.081Z,102807.50
2023-05-18T14:30:02.829Z,102805.63
2023-05-18T14:32:30.563Z,102811.19
2023-05-18T14:34:58.583Z,102804.38
2023-05-18T14:37:27.627Z,102802.44
2023-05-18T14:39:55.544Z,102802.72
2023-05-18T14:42:23.243Z,102804.31
2023-05-18T14:44:50.951Z,102799.44
2023-05-18T14:47:18.871Z,102807.19
2023-05-18T14:49:46.521Z,102808.00
2023-05-18T14:52:14.553Z,102804.84
2023-05-18T14:54:43.507Z,102797.94
2023-05-18T14:57:11.208Z,102803.69
2023-05-18T14:59:38.868Z,102797.09
2023-05-18T15:02:07.988Z,102807.94
2023-05-18T15:04:36.086Z,102805.50
2023-05-18T15:07:04.618Z,102809.91
2023-05-18T15:09:32.363Z,102810.59
2023-05-18T15:12:01.305Z,102803.59
2023-05-18T15:14:29.386Z,102811.88
2023-05-18T15:16:58.549Z,102810.63
2023-05-18T15:19:26.153Z,102802.81
2023-05-18T15:21:53.928Z,102810.00
2023-05-18T15:24:21.687Z,102816.25
2023-05-18T15:26:49.506Z,102814.03
2023-05-18T15:29:18.488Z,102818.72
2023-05-18T15:31:46.927Z,102809.50
2023-05-18T15:34:15.359Z,102809.78
2023-05-18T15:36:43.289Z,102817.97
2023-05-18T15:39:10.929Z,102807.72
2023-05-18T15:41:38.653Z,102825.16
2023-05-18T15:44:06.624Z,102812.66
2023-05-18T15:46:35.931Z,102819.13
2023-05-18T15:49:04.208Z,102802.38
2023-05-18T15:51:32.065Z,102806.34
2023-05-18T15:53:59.695Z,102814.03
2023-05-18T15:56:28.138Z,102803.59
2023-05-18T15:58:55.866Z,102804.50
2023-05-18T16:01:23.690Z,102802.19
2023-05-18T16:03:52.796Z,102800.06
2023-05-18T16:06:20.469Z,102795.50
2023-05-18T16:08:48.086Z,102806.50
2023-05-18T16:11:16.039Z,102800.63
2023-05-18T16:13:43.803Z,102799.69
2023-05-18T16:16:14.137Z,102806.19
2023-05-18T16:18:42.464Z,102795.16
2023-05-18T16:21:11.445Z,102801.31
2023-05-18T16:23:39.330Z,102791.94
2023-05-18T16:26:07.334Z,102792.38
2023-05-18T16:28:35.297Z,102793.00
2023-05-18T16:31:04.665Z,102800.75
2023-05-18T16:33:32.578Z,102799.00
2023-05-18T16:36:00.342Z,102789.94
2023-05-18T16:38:29.380Z,102794.34
2023-05-18T16:40:57.129Z,102795.94
2023-05-18T16:43:24.828Z,102797.22
2023-05-18T16:45:53.257Z,102787.81
2023-05-18T16:48:20.911Z,102795.41
2023-05-18T16:50:48.777Z,102798.94
2023-05-18T16:53:16.490Z,102802.56
2023-05-18T16:55:45.615Z,102799.00
2023-05-18T16:58:13.329Z,102795.69
2023-05-18T17:00:41.523Z,102792.69
2023-05-18T17:03:09.236Z,102790.31
2023-05-18T17:05:37.813Z,102791.34
2023-05-18T17:08:05.880Z,102797.75
2023-05-18T17:10:35.427Z,102795.19
2023-05-18T17:13:04.886Z,102788.47
2023-05-18T17:15:33.139Z,102786.34
2023-05-18T17:18:01.535Z,102791.06
2023-05-18T17:20:29.320Z,102807.81
2023-05-18T17:22:57.166Z,102803.28
2023-05-18T17:25:25.883Z,102805.78
2023-05-18T17:27:53.593Z,102807.81
2023-05-18T17:30:23.343Z,102808.34
2023-05-18T17:32:51.431Z,102810.22
2023-05-18T17:35:19.360Z,102812.63
2023-05-18T17:37:48.762Z,102812.25
2023-05-18T17:40:16.525Z,102815.53
2023-05-18T17:42:44.200Z,102808.25
2023-05-18T17:45:12.099Z,102813.00
2023-05-18T17:47:42.239Z,102808.19
2023-05-18T17:50:10.264Z,102805.28
2023-05-18T17:52:37.964Z,102814.75
2023-05-18T17:55:06.279Z,102817.81
2023-05-18T17:57:34.244Z,102813.47
2023-05-18T18:00:02.074Z,102803.53
2023-05-18T18:02:29.753Z,102805.28
2023-05-18T18:04:58.814Z,102804.16
2023-05-18T18:07:26.613Z,102797.78
2023-05-18T18:09:54.618Z,102804.06
2023-05-18T18:12:22.286Z,102802.81
2023-05-18T18:14:49.906Z,102807.34
2023-05-18T18:17:17.628Z,102812.09
2023-05-18T18:19:45.359Z,102805.41
2023-05-18T18:22:14.327Z,102812.25
2023-05-18T18:24:41.910Z,102807.44
2023-05-18T18:27:09.926Z,102808.88
2023-05-18T18:29:37.649Z,102803.50
2023-05-18T18:32:06.125Z,102809.25
2023-05-18T18:34:34.090Z,102807.09
2023-05-18T18:37:02.236Z,102807.81
2023-05-18T18:39:31.190Z,102810.53
2023-05-18T18:41:59.096Z,102805.84
2023-05-18T18:44:26.787Z,102810.75
2023-05-18T18:46:54.492Z,102812.78
2023-05-18T18:49:22.214Z,102816.81
2023-05-18T18:51:51.675Z,102823.47
2023-05-18T18:54:19.449Z,102827.81
2023-05-18T18:56:48.469Z,102823.41
2023-05-18T18:59:16.089Z,102821.25
2023-05-18T19:01:44.196Z,102823.50
2023-05-18T19:04:12.980Z,102825.31
2023-05-18T19:06:42.556Z,102826.19
2023-05-18T19:09:10.263Z,102836.91
2023-05-18T19:11:37.897Z,102824.19
2023-05-18T19:14:06.982Z,102834.41
2023-05-18T19:16:35.315Z,102830.06
2023-05-18T19:19:08.530Z,102835.75
2023-05-18T19:21:36.659Z,102834.53
2023-05-18T19:24:04.365Z,102837.00
2023-05-18T19:26:32.531Z,102845.34
2023-05-18T19:29:00.412Z,102844.59
2023-05-18T19:31:31.683Z,102835.34
2023-05-18T19:34:00.602Z,102841.00
2023-05-18T19:36:28.542Z,102841.13
2023-05-18T19:38:56.418Z,102845.53
2023-05-18T19:41:24.894Z,102848.34
2023-05-18T19:43:52.856Z,102848.44
2023-05-18T19:46:20.597Z,102854.09
2023-05-18T19:48:49.593Z,102859.91
2023-05-18T19:51:18.502Z,102865.88
2023-05-18T19:53:46.252Z,102864.00
2023-05-18T19:56:14.034Z,102867.44
2023-05-18T19:58:41.856Z,102875.09
2023-05-18T20:01:10.388Z,102872.19
2023-05-18T20:03:40.856Z,102875.94
2023-05-18T20:06:12.593Z,102878.53
2023-05-18T20:08:40.555Z,102876.69
2023-05-18T20:11:08.258Z,102886.91
2023-05-18T20:13:35.869Z,102888.34
2023-05-18T20:16:04.090Z,102888.09
2023-05-18T20:18:34.896Z,102887.81
2023-05-18T20:21:03.274Z,102892.22
2023-05-18T20:23:32.272Z,102897.91
2023-05-18T20:26:01.062Z,102905.00
2023-05-18T20:28:31.399Z,102895.59
2023-05-18T20:30:59.242Z,102908.13
2023-05-18T20:33:27.004Z,102906.38
2023-05-18T20:35:54.572Z,102910.16
2023-05-18T20:38:25.630Z,102912.00
2023-05-18T20:40:57.626Z,102918.34
2023-05-18T20:43:25.268Z,102923.44
2023-05-18T20:45:52.992Z,102916.97
2023-05-18T20:48:26.573Z,102921.91
2023-05-18T20:50:54.515Z,102923.03
2023-05-18T20:53:22.174Z,102928.78
2023-05-18T20:55:50.426Z,102928.38
2023-05-18T20:58:19.440Z,102928.56
2023-05-18T21:00:47.965Z,102926.84
2023-05-18T21:03:18.266Z,102926.44
2023-05-18T21:05:49.621Z,102922.09
2023-05-18T21:08:17.438Z,102930.09
2023-05-18T21:10:45.077Z,102932.66
2023-05-18T21:13:12.720Z,102931.53
2023-05-18T21:15:41.880Z,102937.72
2023-05-18T21:18:09.842Z,102928.72
2023-05-18T21:20:37.572Z,102932.09
2023-05-18T21:23:05.357Z,102926.06
2023-05-18T21:25:32.974Z,102925.50
2023-05-18T21:28:00.585Z,102931.28
2023-05-18T21:30:28.285Z,102937.03
2023-05-18T21:32:57.329Z,102936.16
2023-05-18T21:35:25.187Z,102936.72
2023-05-18T21:37:53.190Z,102937.97
2023-05-18T21:40:20.865Z,102936.00
2023-05-18T21:42:48.492Z,102939.22
2023-05-18T21:45:17.344Z,102944.13
2023-05-18T21:47:45.135Z,102944.00
2023-05-18T21:50:14.146Z,102936.69
2023-05-18T21:52:41.759Z,102938.19
2023-05-18T21:55:10.480Z,102947.59
2023-05-18T21:57:38.162Z,102946.59
2023-05-18T22:00:07.031Z,102942.81
2023-05-18T22:02:34.704Z,102938.72
2023-05-18T22:05:02.409Z,102940.97
2023-05-18T22:07:31.405Z,102941.50
2023-05-18T22:09:58.998Z,102941.63
2023-05-18T22:12:27.033Z,102944.81
2023-05-18T22:14:54.652Z,102943.38
2023-05-18T22:17:22.390Z,102948.16
2023-05-18T22:19:50.608Z,102944.06
2023-05-18T22:22:29.215Z,102941.09
2023-05-18T22:24:59.508Z,102944.28
2023-05-18T22:27:27.307Z,102950.16
2023-05-18T22:29:55.013Z,102944.81
2023-05-18T22:32:22.817Z,102940.88
2023-05-18T22:34:50.626Z,102938.75
2023-05-18T22:37:18.339Z,102937.19
2023-05-18T22:39:45.974Z,102938.88
2023-05-18T22:42:15.005Z,102936.88
2023-05-18T22:44:42.703Z,102942.34
2023-05-18T22:47:11.340Z,102939.34
2023-05-18T22:49:41.128Z,102940.72
2023-05-18T22:52:10.184Z,102937.47
2023-05-18T22:54:37.775Z,102945.56
2023-05-18T22:57:05.718Z,102942.78
2023-05-18T22:59:35.543Z,102948.75
2023-05-18T23:02:03.494Z,102946.09
2023-05-18T23:04:31.264Z,102943.72
2023-05-18T23:06:59.163Z,102933.59
2023-05-18T23:09:27.915Z,102930.34
2023-05-18T23:11:56.267Z,102940.72
2023-05-18T23:14:24.180Z,102933.72
2023-05-18T23:16:53.546Z,102936.63
2023-05-18T23:19:21.425Z,102931.56
2023-05-18T23:21:49.184Z,102945.97
2023-05-18T23:24:17.245Z,102938.25
2023-05-18T23:26:45.579Z,102934.97
2023-05-18T23:29:13.247Z,102937.88
2023-05-18T23:31:41.288Z,102940.19
2023-05-18T23:34:11.058Z,102938.63
2023-05-18T23:36:42.518Z,102935.13
2023-05-18T23:39:10.399Z,102938.28
2023-05-18T23:41:39.265Z,102940.38
2023-05-18T23:44:07.508Z,102948.47
2023-05-18T23:46:35.993Z,102946.06
2023-05-18T23:49:04.487Z,102952.34
2023-05-18T23:51:36.264Z,102953.59
2023-05-18T23:54:07.182Z,102948.03
2023-05-18T23:56:35.484Z,102950.13
2023-05-18T23:59:03.816Z,102952.19
